createdAt,value
2019-05-23T00:00:19.250Z,20.00
2019-05-23T00:01:19.243Z,20.00
2019-05-23T00:02:19.247Z,20.00
2019-05-23T00:03:19.217Z,20.00
2019-05-23T00:04:19.207Z,20.00
2019-05-23T00:05:19.248Z,20.00
2019-05-23T00:06:19.188Z,20.00
2019-05-23T00:07:19.175Z,20.00
2019-05-23T00:08:19.195Z,20.00
2019-05-23T00:09:19.435Z,20.00
2019-05-23T00:10:19.148Z,20.00
2019-05-23T00:11:19.167Z,20.00
2019-05-23T00:12:19.117Z,20.00
2019-05-23T00:13:19.107Z,20.00
2019-05-23T00:14:19.097Z,20.00
2019-05-23T00:15:19.087Z,20.00
2019-05-23T00:16:19.380Z,20.00
2019-05-23T00:17:19.116Z,20.00
2019-05-23T00:18:21.211Z,20.00
2019-05-23T00:19:19.048Z,20.00
2019-05-23T00:20:19.036Z,20.00
2019-05-23T00:21:19.026Z,20.00
2019-05-23T00:22:19.027Z,20.00
2019-05-23T00:23:19.037Z,20.00
2019-05-23T00:24:18.987Z,20.00
2019-05-23T00:25:18.990Z,20.00
2019-05-23T00:26:18.977Z,20.00
2019-05-23T00:27:18.957Z,20.00
2019-05-23T00:28:19.255Z,20.00
2019-05-23T00:29:18.985Z,20.00
2019-05-23T00:30:18.933Z,20.00
2019-05-23T00:31:18.916Z,20.00
2019-05-23T00:32:18.905Z,20.00
2019-05-23T00:33:19.419Z,20.00
2019-05-23T00:34:18.883Z,20.00
2019-05-23T00:35:18.906Z,20.00
2019-05-23T00:36:18.860Z,20.00
2019-05-23T00:37:18.848Z,20.00
2019-05-23T00:38:18.843Z,20.00
2019-05-23T00:39:18.826Z,20.00
2019-05-23T00:40:19.109Z,20.00
2019-05-23T00:41:18.876Z,20.00
2019-05-23T00:42:18.794Z,20.00
2019-05-23T00:43:18.786Z,20.00
2019-05-23T00:44:18.777Z,20.00
2019-05-23T00:45:18.763Z,20.00
2019-05-23T00:46:18.767Z,20.00
2019-05-23T00:47:18.783Z,20.00
2019-05-23T00:48:18.736Z,20.00
2019-05-23T00:49:18.724Z,20.00
2019-05-23T00:50:18.705Z,20.00
2019-05-23T00:51:18.707Z,20.00
2019-05-23T00:52:19.022Z,20.00
2019-05-23T00:53:18.716Z,20.00
2019-05-23T00:54:18.664Z,20.00
2019-05-23T00:55:18.655Z,20.00
2019-05-23T00:56:18.673Z,20.00
2019-05-23T00:57:18.652Z,20.00
2019-05-23T00:58:18.653Z,20.00
2019-05-23T00:59:27.311Z,20.00
2019-05-23T01:00:19.671Z,20.00
2019-05-23T01:01:18.662Z,20.00
2019-05-23T01:02:18.664Z,20.00
2019-05-23T01:03:18.816Z,20.00
2019-05-23T01:04:18.846Z,20.00
2019-05-23T01:05:18.583Z,20.00
2019-05-23T01:06:18.632Z,20.00
2019-05-23T01:07:18.524Z,20.00
2019-05-23T01:08:18.527Z,20.00
2019-05-23T01:09:18.517Z,20.00
2019-05-23T01:10:18.740Z,20.00
2019-05-23T01:11:18.838Z,20.00
2019-05-23T01:12:18.477Z,20.00
2019-05-23T01:13:18.465Z,20.00
2019-05-23T01:14:18.454Z,20.00
2019-05-23T01:15:18.445Z,20.00
2019-05-23T01:16:18.483Z,20.00
2019-05-23T01:17:18.493Z,20.00
2019-05-23T01:18:18.695Z,20.00
2019-05-23T01:19:18.395Z,20.00
2019-05-23T01:20:19.172Z,20.00
2019-05-23T01:21:18.384Z,20.00
2019-05-23T01:22:18.372Z,20.00
2019-05-23T01:23:18.402Z,20.00
2019-05-23T01:24:18.345Z,20.00
2019-05-23T01:25:18.332Z,20.00
2019-05-23T01:26:18.332Z,20.00
2019-05-23T01:27:19.251Z,20.00
2019-05-23T01:28:18.302Z,20.00
2019-05-23T01:29:18.331Z,20.00
2019-05-23T01:30:18.281Z,20.00
2019-05-23T01:31:18.571Z,20.00
2019-05-23T01:32:18.261Z,20.00
2019-05-23T01:33:18.249Z,20.00
2019-05-23T01:34:18.247Z,20.00
2019-05-23T01:35:18.366Z,20.00
2019-05-23T01:36:18.222Z,20.00
2019-05-23T01:37:18.203Z,20.00
2019-05-23T01:38:18.481Z,20.00
2019-05-23T01:39:18.182Z,20.00
2019-05-23T01:40:18.175Z,20.00
2019-05-23T01:41:18.192Z,20.00
2019-05-23T01:42:18.152Z,20.00
2019-05-23T01:43:18.141Z,20.00
2019-05-23T01:44:18.131Z,20.00
2019-05-23T01:45:18.421Z,20.00
2019-05-23T01:46:18.141Z,20.00
2019-05-23T01:47:18.166Z,20.00
2019-05-23T01:48:18.134Z,20.00
2019-05-23T01:49:18.081Z,20.00
2019-05-23T01:50:18.062Z,20.00
2019-05-23T01:51:18.062Z,20.00
2019-05-23T01:52:18.150Z,20.00
2019-05-23T01:53:18.079Z,20.00
2019-05-23T01:54:18.030Z,20.00
2019-05-23T01:55:18.021Z,20.00
2019-05-23T01:56:17.999Z,20.00
2019-05-23T01:57:18.277Z,20.00
2019-05-23T01:58:18.023Z,20.00
2019-05-23T01:59:18.029Z,20.00
2019-05-23T02:01:39.049Z,20.00
2019-05-23T02:02:38.878Z,20.00
2019-05-23T02:03:38.862Z,20.00
2019-05-23T02:04:38.887Z,20.00
2019-05-23T02:05:38.843Z,20.00
2019-05-23T02:06:38.833Z,20.00
2019-05-23T02:07:39.154Z,20.00
2019-05-23T02:08:38.811Z,20.00
2019-05-23T02:09:38.808Z,20.00
2019-05-23T02:10:38.779Z,20.00
2019-05-23T02:11:38.769Z,20.00
2019-05-23T02:12:38.758Z,20.00
2019-05-23T02:13:39.099Z,20.00
2019-05-23T02:14:38.759Z,20.00
2019-05-23T02:15:38.722Z,20.00
2019-05-23T02:16:38.720Z,20.00
2019-05-23T02:17:38.708Z,20.00
2019-05-23T02:18:38.697Z,20.00
2019-05-23T02:19:39.431Z,20.00
2019-05-23T02:20:38.679Z,20.00
2019-05-23T02:21:38.666Z,20.00
2019-05-23T02:22:38.651Z,20.00
2019-05-23T02:23:38.639Z,20.00
2019-05-23T02:24:38.640Z,20.00
2019-05-23T02:25:38.943Z,20.00
2019-05-23T02:26:38.608Z,20.00
2019-05-23T02:27:38.604Z,20.00
2019-05-23T02:28:38.590Z,16.00
2019-05-23T02:29:38.596Z,16.00
2019-05-23T02:30:38.570Z,16.00
2019-05-23T02:31:38.598Z,20.00
2019-05-23T02:32:38.549Z,20.00
2019-05-23T02:33:38.543Z,20.00
2019-05-23T02:34:38.520Z,20.00
2019-05-23T02:35:38.516Z,20.00
2019-05-23T02:36:38.506Z,20.00
2019-05-23T02:37:39.289Z,20.00
2019-05-23T02:38:38.479Z,20.00
2019-05-23T02:39:38.469Z,20.00
2019-05-23T02:40:38.458Z,20.00
2019-05-23T02:41:38.462Z,20.00
2019-05-23T02:42:38.452Z,20.00
2019-05-23T02:43:38.471Z,20.00
2019-05-23T02:44:38.418Z,24.00
2019-05-23T02:45:38.408Z,24.00
2019-05-23T02:46:38.400Z,20.00
2019-05-23T02:47:38.401Z,20.00
2019-05-23T02:48:38.398Z,24.00
2019-05-23T02:49:39.845Z,24.00
2019-05-23T02:50:38.358Z,24.00
2019-05-23T02:51:38.344Z,24.00
2019-05-23T02:52:38.326Z,20.00
2019-05-23T02:53:38.338Z,20.00
2019-05-23T02:54:38.307Z,20.00
2019-05-23T02:55:38.369Z,20.00
2019-05-23T02:56:38.718Z,24.00
2019-05-23T02:57:38.290Z,24.00
2019-05-23T02:58:41.245Z,28.00
2019-05-23T02:59:38.255Z,28.00
2019-05-23T03:00:53.232Z,28.00
2019-05-23T03:01:39.270Z,28.00
2019-05-23T03:02:38.227Z,32.00
2019-05-23T03:03:38.497Z,36.00
2019-05-23T03:04:38.206Z,36.00
2019-05-23T03:05:38.195Z,40.00
2019-05-23T03:06:38.195Z,44.00
2019-05-23T03:07:38.322Z,52.00
2019-05-23T03:08:38.215Z,52.00
2019-05-23T03:09:38.695Z,60.00
2019-05-23T03:10:38.425Z,60.00
2019-05-23T03:11:38.127Z,68.00
2019-05-23T03:12:38.118Z,72.00
2019-05-23T03:13:38.508Z,76.00
2019-05-23T03:14:38.104Z,88.00
2019-05-23T03:15:38.094Z,92.00
2019-05-23T03:16:38.075Z,96.00
2019-05-23T03:17:38.345Z,92.00
2019-05-23T03:18:38.056Z,100.00
2019-05-23T03:19:38.098Z,104.00
2019-05-23T03:20:38.036Z,116.00
2019-05-23T03:21:38.025Z,120.00
2019-05-23T03:22:38.019Z,124.00
2019-05-23T03:23:38.004Z,136.00
2019-05-23T03:24:38.285Z,144.00
2019-05-23T03:25:38.016Z,152.00
2019-05-23T03:26:37.967Z,164.00
2019-05-23T03:27:37.970Z,172.00
2019-05-23T03:28:37.954Z,180.00
2019-05-23T03:29:37.933Z,192.00
2019-05-23T03:30:37.934Z,208.00
2019-05-23T03:31:38.417Z,220.00
2019-05-23T03:32:39.770Z,232.00
2019-05-23T03:33:37.903Z,248.00
2019-05-23T03:34:37.883Z,264.00
2019-05-23T03:35:37.873Z,276.00
2019-05-23T03:36:37.869Z,292.00
2019-05-23T03:37:38.172Z,308.00
2019-05-23T03:38:37.843Z,324.00
2019-05-23T03:39:37.841Z,340.00
2019-05-23T03:40:37.822Z,356.00
2019-05-23T03:41:37.811Z,372.00
2019-05-23T03:42:37.804Z,388.00
2019-05-23T03:43:37.830Z,408.00
2019-05-23T03:44:37.779Z,424.00
2019-05-23T03:45:39.704Z,440.00
2019-05-23T03:46:37.753Z,460.00
2019-05-23T03:47:37.749Z,480.00
2019-05-23T03:48:37.741Z,500.00
2019-05-23T03:49:38.151Z,516.00
2019-05-23T03:50:37.722Z,548.00
2019-05-23T03:51:37.706Z,564.00
2019-05-23T03:52:37.705Z,588.00
2019-05-23T03:53:37.680Z,608.00
2019-05-23T03:54:37.693Z,632.00
2019-05-23T03:55:37.702Z,656.00
2019-05-23T03:56:37.652Z,680.00
2019-05-23T03:57:37.651Z,708.00
2019-05-23T03:58:37.720Z,736.00
2019-05-23T03:59:37.630Z,760.00
2019-05-23T04:00:37.634Z,784.00
2019-05-23T04:01:47.590Z,816.00
2019-05-23T04:02:38.590Z,836.00
2019-05-23T04:03:39.990Z,852.00
2019-05-23T04:04:37.571Z,876.00
2019-05-23T04:05:37.572Z,892.00
2019-05-23T04:07:56.365Z,928.00
2019-05-23T04:08:56.297Z,948.00
2019-05-23T04:09:56.299Z,976.00
2019-05-23T04:10:56.280Z,1004.00
2019-05-23T04:11:56.294Z,1036.00
2019-05-23T04:12:56.264Z,1068.00
2019-05-23T04:13:56.571Z,1092.00
2019-05-23T04:14:56.232Z,1108.00
2019-05-23T04:15:56.217Z,1136.00
2019-05-23T04:16:56.217Z,1168.00
2019-05-23T04:17:56.207Z,1196.00
2019-05-23T04:18:56.209Z,1216.00
2019-05-23T04:19:56.504Z,1240.00
2019-05-23T04:20:56.173Z,1260.00
2019-05-23T04:21:56.286Z,1292.00
2019-05-23T04:22:56.165Z,1344.00
2019-05-23T04:23:56.145Z,1396.00
2019-05-23T04:25:00.692Z,1432.00
2019-05-23T04:25:57.165Z,1452.00
2019-05-23T04:26:56.117Z,1472.00
2019-05-23T04:27:56.097Z,1484.00
2019-05-23T04:28:56.094Z,1512.00
2019-05-23T04:29:56.079Z,1540.00
2019-05-23T04:30:56.073Z,1556.00
2019-05-23T04:32:07.137Z,1572.00
2019-05-23T04:32:57.051Z,1596.00
2019-05-23T04:33:56.035Z,1616.00
2019-05-23T04:34:56.035Z,1636.00
2019-05-23T04:35:56.025Z,1656.00
2019-05-23T04:36:56.013Z,1660.00
2019-05-23T04:37:56.044Z,1712.00
2019-05-23T04:38:55.985Z,1772.00
2019-05-23T04:39:55.974Z,1796.00
2019-05-23T04:40:55.966Z,1840.00
2019-05-23T04:41:55.955Z,1860.00
2019-05-23T04:42:55.944Z,1908.00
2019-05-23T04:43:56.337Z,1976.00
2019-05-23T04:44:55.923Z,1952.00
2019-05-23T04:45:55.916Z,1908.00
2019-05-23T04:46:55.903Z,1904.00
2019-05-23T04:47:55.895Z,1980.00
2019-05-23T04:48:55.906Z,2120.00
2019-05-23T04:49:55.904Z,2160.00
2019-05-23T04:50:59.719Z,2220.00
2019-05-23T04:51:55.844Z,2276.00
2019-05-23T04:52:55.894Z,2376.00
2019-05-23T04:53:55.832Z,2512.00
2019-05-23T04:54:55.823Z,2516.00
2019-05-23T04:55:56.133Z,2544.00
2019-05-23T04:56:55.833Z,2548.00
2019-05-23T04:57:55.821Z,2516.00
2019-05-23T04:58:55.871Z,2584.00
2019-05-23T04:59:55.854Z,2596.00
2019-05-23T05:00:55.862Z,2600.00
2019-05-23T05:01:55.785Z,2608.00
2019-05-23T05:02:56.202Z,2592.00
2019-05-23T05:03:55.753Z,2604.00
2019-05-23T05:04:55.881Z,2708.00
2019-05-23T05:05:55.702Z,2760.00
2019-05-23T05:06:55.794Z,2812.00
2019-05-23T05:07:55.991Z,2768.00
2019-05-23T05:08:56.031Z,2820.00
2019-05-23T05:09:56.173Z,2872.00
2019-05-23T05:10:55.786Z,2988.00
2019-05-23T05:11:56.646Z,3048.00
2019-05-23T05:12:55.629Z,3016.00
2019-05-23T05:13:55.901Z,3140.00
2019-05-23T05:14:55.610Z,3228.00
2019-05-23T05:15:55.883Z,3236.00
2019-05-23T05:16:55.877Z,3004.00
2019-05-23T05:17:55.692Z,2732.00
2019-05-23T05:18:55.695Z,2764.00
2019-05-23T05:19:55.761Z,2880.00
2019-05-23T05:20:56.354Z,3032.00
2019-05-23T05:21:55.690Z,3424.00
2019-05-23T05:22:56.057Z,3704.00
2019-05-23T05:23:56.353Z,3808.00
2019-05-23T05:24:55.514Z,3980.00
2019-05-23T05:25:55.552Z,3984.00
2019-05-23T05:26:55.550Z,4020.00
2019-05-23T05:27:55.649Z,3896.00
2019-05-23T05:28:55.500Z,4068.00
2019-05-23T05:29:55.894Z,4540.00
2019-05-23T05:30:55.729Z,4488.00
2019-05-23T05:31:55.470Z,4564.00
2019-05-23T05:32:55.429Z,4612.00
2019-05-23T05:33:55.423Z,4712.00
2019-05-23T05:34:55.431Z,4864.00
2019-05-23T05:35:56.143Z,4832.00
2019-05-23T05:36:56.208Z,4484.00
2019-05-23T05:37:55.419Z,4244.00
2019-05-23T05:38:55.408Z,4396.00
2019-05-23T05:39:55.378Z,4528.00
2019-05-23T05:40:55.367Z,4484.00
2019-05-23T05:41:55.328Z,4456.00
2019-05-23T05:42:55.319Z,4444.00
2019-05-23T05:43:56.490Z,4376.00
2019-05-23T05:44:55.297Z,4380.00
2019-05-23T05:45:55.309Z,4184.00
2019-05-23T05:46:55.278Z,4328.00
2019-05-23T05:47:55.275Z,4392.00
2019-05-23T05:48:55.264Z,4404.00
2019-05-23T05:49:55.349Z,4612.00
2019-05-23T05:50:55.526Z,4396.00
2019-05-23T05:51:55.224Z,4976.00
2019-05-23T05:52:55.222Z,5240.00
2019-05-23T05:53:55.220Z,5400.00
2019-05-23T05:54:55.280Z,5376.00
2019-05-23T05:55:55.422Z,5540.00
2019-05-23T05:56:55.176Z,5660.00
2019-05-23T05:57:55.157Z,5712.00
2019-05-23T05:58:55.211Z,5664.00
2019-05-23T05:59:55.667Z,5552.00
2019-05-23T06:00:55.561Z,5668.00
2019-05-23T06:01:55.158Z,5588.00
2019-05-23T06:03:04.492Z,5356.00
2019-05-23T06:03:56.104Z,5276.00
2019-05-23T06:04:55.116Z,5208.00
2019-05-23T06:05:55.067Z,5300.00
2019-05-23T06:06:55.195Z,5240.00
2019-05-23T06:07:55.087Z,5280.00
2019-05-23T06:08:55.353Z,5360.00
2019-05-23T06:09:55.057Z,5316.00
2019-05-23T06:10:55.028Z,5468.00
2019-05-23T06:11:55.022Z,5256.00
2019-05-23T06:12:55.158Z,5188.00
2019-05-23T06:13:55.942Z,5492.00
2019-05-23T06:14:55.278Z,5444.00
2019-05-23T06:15:54.964Z,5400.00
2019-05-23T06:16:54.983Z,5308.00
2019-05-23T06:17:55.295Z,5156.00
2019-05-23T06:18:55.013Z,5200.00
2019-05-23T06:19:55.011Z,5432.00
2019-05-23T06:20:54.963Z,5408.00
2019-05-23T06:21:54.911Z,5572.00
2019-05-23T06:22:54.993Z,5524.00
2019-05-23T06:23:54.922Z,5536.00
2019-05-23T06:24:56.678Z,5396.00
2019-05-23T06:25:54.933Z,5448.00
2019-05-23T06:26:55.257Z,5388.00
2019-05-23T06:27:54.844Z,5552.00
2019-05-23T06:28:54.826Z,5500.00
2019-05-23T06:29:54.813Z,5632.00
2019-05-23T06:30:54.803Z,5580.00
2019-05-23T06:31:54.943Z,5524.00
2019-05-23T06:32:54.798Z,5504.00
2019-05-23T06:33:55.126Z,5500.00
2019-05-23T06:34:54.764Z,5584.00
2019-05-23T06:35:54.754Z,5700.00
2019-05-23T06:36:54.753Z,5572.00
2019-05-23T06:37:54.769Z,5672.00
2019-05-23T06:38:54.723Z,5580.00
2019-05-23T06:39:54.716Z,5672.00
2019-05-23T06:40:54.991Z,5440.00
2019-05-23T06:41:54.693Z,5396.00
2019-05-23T06:42:54.674Z,5428.00
2019-05-23T06:43:54.734Z,5468.00
2019-05-23T06:44:54.664Z,5472.00
2019-05-23T06:45:54.652Z,5480.00
2019-05-23T06:46:54.656Z,5632.00
2019-05-23T06:47:54.929Z,5672.00
2019-05-23T06:48:54.630Z,5844.00
2019-05-23T06:49:54.738Z,5880.00
2019-05-23T06:50:54.610Z,5640.00
2019-05-23T06:51:55.076Z,5944.00
2019-05-23T06:52:54.808Z,5824.00
2019-05-23T06:53:54.750Z,6020.00
2019-05-23T06:54:55.203Z,6136.00
2019-05-23T06:55:54.894Z,6264.00
2019-05-23T06:56:54.727Z,6292.00
2019-05-23T06:57:54.614Z,6468.00
2019-05-23T06:58:54.713Z,6496.00
2019-05-23T06:59:54.815Z,6508.00
2019-05-23T07:00:54.632Z,6504.00
2019-05-23T07:01:54.583Z,6612.00
2019-05-23T07:02:54.482Z,6592.00
2019-05-23T07:03:54.470Z,6648.00
2019-05-23T07:04:54.485Z,6828.00
2019-05-23T07:05:54.461Z,6656.00
2019-05-23T07:06:54.756Z,5936.00
2019-05-23T07:07:54.463Z,6472.00
2019-05-23T07:08:54.423Z,7188.00
2019-05-23T07:09:55.655Z,7124.00
2019-05-23T07:10:54.453Z,7480.00
2019-05-23T07:11:55.130Z,7524.00
2019-05-23T07:12:54.516Z,7860.00
2019-05-23T07:13:55.624Z,7992.00
2019-05-23T07:14:54.351Z,8028.00
2019-05-23T07:15:54.338Z,8268.00
2019-05-23T07:16:56.197Z,9032.00
2019-05-23T07:17:54.425Z,9928.00
2019-05-23T07:18:54.677Z,10628.00
2019-05-23T07:19:54.720Z,11616.00
2019-05-23T07:20:54.750Z,11476.00
2019-05-23T07:21:54.300Z,11196.00
2019-05-23T07:23:01.222Z,10936.00
2019-05-23T07:23:54.266Z,10940.00
2019-05-23T07:24:58.589Z,10484.00
2019-05-23T07:25:54.309Z,10192.00
2019-05-23T07:26:54.266Z,10396.00
2019-05-23T07:27:54.232Z,10184.00
2019-05-23T07:28:54.273Z,10080.00
2019-05-23T07:29:54.203Z,9748.00
2019-05-23T07:30:54.181Z,9576.00
2019-05-23T07:31:54.445Z,10112.00
2019-05-23T07:32:54.930Z,10540.00
2019-05-23T07:34:01.592Z,10316.00
2019-05-23T07:34:55.390Z,10104.00
2019-05-23T07:35:55.438Z,10352.00
2019-05-23T07:36:54.433Z,10692.00
2019-05-23T07:38:19.894Z,11124.00
2019-05-23T07:39:19.784Z,11188.00
2019-05-23T07:40:19.786Z,11056.00
2019-05-23T07:41:19.785Z,11112.00
2019-05-23T07:42:19.763Z,11384.00
2019-05-23T07:43:19.754Z,11488.00
2019-05-23T07:44:20.310Z,11700.00
2019-05-23T07:45:19.738Z,11864.00
2019-05-23T07:46:19.715Z,11780.00
2019-05-23T07:47:19.738Z,11936.00
2019-05-23T07:48:19.712Z,12876.00
2019-05-23T07:49:19.714Z,12220.00
2019-05-23T07:50:20.105Z,12240.00
2019-05-23T07:51:21.763Z,12604.00
2019-05-23T07:52:23.238Z,12856.00
2019-05-23T07:53:20.950Z,12968.00
2019-05-23T07:54:19.985Z,12900.00
2019-05-23T07:55:20.173Z,12960.00
2019-05-23T07:56:20.499Z,13120.00
2019-05-23T07:57:21.067Z,13156.00
2019-05-23T07:58:19.644Z,13076.00
2019-05-23T07:59:19.597Z,12540.00
2019-05-23T08:00:19.580Z,12712.00
2019-05-23T08:01:19.565Z,13000.00
2019-05-23T08:02:19.639Z,13208.00
2019-05-23T08:03:19.542Z,13384.00
2019-05-23T08:04:22.710Z,13636.00
2019-05-23T08:05:19.514Z,13880.00
2019-05-23T08:06:19.819Z,14116.00
2019-05-23T08:07:20.174Z,14204.00
2019-05-23T08:08:19.572Z,14236.00
2019-05-23T08:09:19.497Z,14396.00
2019-05-23T08:10:33.139Z,14272.00
2019-05-23T08:11:20.455Z,14304.00
2019-05-23T08:12:19.480Z,14260.00
2019-05-23T08:13:19.516Z,14256.00
2019-05-23T08:14:19.494Z,14356.00
2019-05-23T08:15:19.423Z,14164.00
2019-05-23T08:16:19.408Z,14224.00
2019-05-23T08:17:19.712Z,14128.00
2019-05-23T08:18:20.261Z,14492.00
2019-05-23T08:19:19.890Z,14452.00
2019-05-23T08:20:19.406Z,14468.00
2019-05-23T08:21:19.397Z,14476.00
2019-05-23T08:22:19.395Z,14492.00
2019-05-23T08:23:19.565Z,14592.00
2019-05-23T08:24:19.325Z,14588.00
2019-05-23T08:25:19.323Z,14584.00
2019-05-23T08:26:19.324Z,14536.00
2019-05-23T08:27:19.298Z,14756.00
2019-05-23T08:28:19.270Z,14776.00
2019-05-23T08:29:25.878Z,14556.00
2019-05-23T08:30:20.277Z,14904.00
2019-05-23T08:31:19.250Z,15264.00
2019-05-23T08:32:19.312Z,15344.00
2019-05-23T08:33:19.734Z,15376.00
2019-05-23T08:34:19.624Z,15404.00
2019-05-23T08:35:19.439Z,15368.00
2019-05-23T08:36:19.217Z,15584.00
2019-05-23T08:37:19.399Z,15664.00
2019-05-23T08:38:19.292Z,15692.00
2019-05-23T08:39:19.695Z,15792.00
2019-05-23T08:40:19.977Z,15856.00
2019-05-23T08:41:19.732Z,15844.00
2019-05-23T08:42:19.894Z,15792.00
2019-05-23T08:43:19.362Z,16132.00
2019-05-23T08:44:19.688Z,14192.00
2019-05-23T08:45:19.131Z,15348.00
2019-05-23T08:46:19.096Z,14764.00
2019-05-23T08:47:19.096Z,14396.00
2019-05-23T08:48:19.709Z,16348.00
2019-05-23T08:49:19.724Z,16180.00
2019-05-23T08:50:19.639Z,16128.00
2019-05-23T08:51:22.365Z,16412.00
2019-05-23T08:52:19.346Z,16372.00
2019-05-23T08:53:20.437Z,16256.00
2019-05-23T08:54:20.103Z,16136.00
2019-05-23T08:55:19.585Z,16032.00
2019-05-23T08:56:19.787Z,15980.00
2019-05-23T08:57:19.578Z,16276.00
2019-05-23T08:58:20.102Z,15740.00
2019-05-23T08:59:18.977Z,15748.00
2019-05-23T09:00:18.965Z,16100.00
2019-05-23T09:01:19.691Z,16320.00
2019-05-23T09:02:19.252Z,16384.00
2019-05-23T09:03:18.939Z,16540.00
2019-05-23T09:04:18.959Z,16244.00
2019-05-23T09:05:20.288Z,15840.00
2019-05-23T09:06:19.810Z,15572.00
2019-05-23T09:07:19.658Z,16128.00
2019-05-23T09:08:20.972Z,16248.00
2019-05-23T09:09:29.486Z,16428.00
2019-05-23T09:10:21.255Z,16904.00
2019-05-23T09:11:21.133Z,16780.00
2019-05-23T09:12:23.317Z,16244.00
2019-05-23T09:13:19.897Z,16816.00
2019-05-23T09:14:19.415Z,16608.00
2019-05-23T09:15:18.847Z,16784.00
2019-05-23T09:16:18.778Z,16868.00
2019-05-23T09:17:20.170Z,17344.00
2019-05-23T09:18:18.754Z,17440.00
2019-05-23T09:19:18.756Z,17696.00
2019-05-23T09:20:18.747Z,17824.00
2019-05-23T09:21:18.706Z,18304.00
2019-05-23T09:22:18.697Z,18784.00
2019-05-23T09:23:18.879Z,17888.00
2019-05-23T09:24:21.712Z,16920.00
2019-05-23T09:25:18.962Z,17344.00
2019-05-23T09:26:20.150Z,17888.00
2019-05-23T09:27:18.806Z,18272.00
2019-05-23T09:28:18.632Z,18496.00
2019-05-23T09:29:18.640Z,18816.00
2019-05-23T09:30:19.004Z,18496.00
2019-05-23T09:31:20.590Z,17888.00
2019-05-23T09:32:18.711Z,8572.00
2019-05-23T09:33:18.618Z,18336.00
2019-05-23T09:34:18.572Z,18784.00
2019-05-23T09:35:21.305Z,18976.00
2019-05-23T09:36:18.587Z,18688.00
2019-05-23T09:37:18.720Z,17664.00
2019-05-23T09:38:18.805Z,18720.00
2019-05-23T09:39:19.462Z,18624.00
2019-05-23T09:40:18.515Z,18816.00
2019-05-23T09:41:19.660Z,19520.00
2019-05-23T09:42:18.537Z,19136.00
2019-05-23T09:43:18.466Z,18656.00
2019-05-23T09:44:18.838Z,18880.00
2019-05-23T09:45:18.453Z,19072.00
2019-05-23T09:46:19.076Z,19552.00
2019-05-23T09:47:19.130Z,19488.00
2019-05-23T09:48:19.650Z,19264.00
2019-05-23T09:49:19.466Z,20000.00
2019-05-23T09:50:19.308Z,20384.00
2019-05-23T09:51:26.028Z,20448.00
2019-05-23T09:52:21.259Z,20800.00
2019-05-23T09:53:19.857Z,20544.00
2019-05-23T09:54:22.390Z,19968.00
2019-05-23T09:55:19.072Z,20128.00
2019-05-23T09:56:20.921Z,20320.00
2019-05-23T09:57:19.030Z,20896.00
2019-05-23T09:58:19.844Z,20672.00
2019-05-23T09:59:19.139Z,20800.00
2019-05-23T10:00:18.319Z,21280.00
2019-05-23T10:01:18.546Z,21824.00
2019-05-23T10:02:18.859Z,16756.00
2019-05-23T10:03:18.317Z,12432.00
2019-05-23T10:04:21.744Z,21568.00
2019-05-23T10:05:41.945Z,11192.00
2019-05-23T10:06:19.269Z,22208.00
2019-05-23T10:07:18.266Z,22016.00
2019-05-23T10:08:18.358Z,20992.00
2019-05-23T10:09:18.222Z,22016.00
2019-05-23T10:10:18.529Z,22080.00
2019-05-23T10:11:18.495Z,22272.00
2019-05-23T10:12:18.157Z,22528.00
2019-05-23T10:13:18.318Z,22880.00
2019-05-23T10:14:18.332Z,22272.00
2019-05-23T10:15:19.508Z,23392.00
2019-05-23T10:16:19.070Z,23456.00
2019-05-23T10:17:18.214Z,23456.00
2019-05-23T10:18:18.278Z,23392.00
2019-05-23T10:19:18.130Z,23040.00
2019-05-23T10:20:18.231Z,22752.00
2019-05-23T10:21:18.061Z,22304.00
2019-05-23T10:22:18.387Z,21728.00
2019-05-23T10:23:18.544Z,22144.00
2019-05-23T10:24:19.021Z,22176.00
2019-05-23T10:25:20.741Z,22592.00
2019-05-23T10:26:19.450Z,22976.00
2019-05-23T10:27:18.328Z,23008.00
2019-05-23T10:28:18.068Z,23296.00
2019-05-23T10:29:18.469Z,23392.00
2019-05-23T10:30:19.411Z,24160.00
2019-05-23T10:31:20.627Z,24288.00
2019-05-23T10:32:18.699Z,24160.00
2019-05-23T10:33:19.082Z,23744.00
2019-05-23T10:34:18.177Z,23488.00
2019-05-23T10:35:18.960Z,23872.00
2019-05-23T10:36:18.679Z,24384.00
2019-05-23T10:37:17.892Z,24512.00
2019-05-23T10:38:18.033Z,24960.00
2019-05-23T10:39:17.917Z,24992.00
2019-05-23T10:40:18.802Z,24896.00
2019-05-23T10:41:19.837Z,25248.00
2019-05-23T10:42:21.065Z,17740.00
2019-05-23T10:43:19.833Z,24992.00
2019-05-23T10:44:17.883Z,25408.00
2019-05-23T10:45:20.832Z,25952.00
2019-05-23T10:46:17.812Z,25312.00
2019-05-23T10:47:17.802Z,25024.00
2019-05-23T10:48:17.846Z,25504.00
2019-05-23T10:49:18.264Z,25504.00
2019-05-23T10:50:17.813Z,24960.00
2019-05-23T10:51:17.766Z,25728.00
2019-05-23T10:52:19.994Z,25792.00
2019-05-23T10:53:20.004Z,26080.00
2019-05-23T10:54:19.475Z,26144.00
2019-05-23T10:55:19.582Z,26720.00
2019-05-23T10:56:20.637Z,27264.00
2019-05-23T10:57:18.674Z,22432.00
2019-05-23T10:58:18.144Z,22336.00
2019-05-23T10:59:18.245Z,19616.00
2019-05-23T11:00:17.669Z,15420.00
2019-05-23T11:01:17.758Z,19008.00
2019-05-23T11:02:20.043Z,14676.00
2019-05-23T11:03:17.696Z,24960.00
2019-05-23T11:04:18.436Z,24608.00
2019-05-23T11:05:21.744Z,24512.00
2019-05-23T11:06:17.673Z,20128.00
2019-05-23T11:07:17.686Z,24096.00
2019-05-23T11:08:28.776Z,25152.00
2019-05-23T11:09:17.918Z,25536.00
2019-05-23T11:10:18.307Z,26176.00
2019-05-23T11:11:17.537Z,26304.00
2019-05-23T11:12:17.563Z,26048.00
2019-05-23T11:13:17.507Z,25824.00
2019-05-23T11:14:18.043Z,23008.00
2019-05-23T11:15:19.260Z,24160.00
2019-05-23T11:16:21.718Z,25024.00
2019-05-23T11:17:18.495Z,25344.00
2019-05-23T11:18:18.140Z,25888.00
2019-05-23T11:19:18.368Z,25600.00
2019-05-23T11:20:18.235Z,24928.00
2019-05-23T11:21:18.134Z,26016.00
2019-05-23T11:22:20.065Z,26016.00
2019-05-23T11:23:17.738Z,26848.00
2019-05-23T11:24:19.087Z,27872.00
2019-05-23T11:25:17.847Z,29376.00
2019-05-23T11:26:19.781Z,30336.00
2019-05-23T11:27:17.709Z,33728.00
2019-05-23T11:28:18.958Z,37152.00
2019-05-23T11:29:19.836Z,39968.00
2019-05-23T11:30:19.828Z,41728.00
2019-05-23T11:31:17.406Z,42848.00
2019-05-23T11:32:20.752Z,43872.00
2019-05-23T11:33:17.351Z,47936.00
2019-05-23T11:34:17.402Z,50080.00
2019-05-23T11:35:17.775Z,51648.00
2019-05-23T11:36:33.719Z,52960.00
2019-05-23T11:37:18.998Z,53728.00
2019-05-23T11:38:21.384Z,55680.00
2019-05-23T11:39:20.270Z,58496.00
2019-05-23T11:40:18.295Z,63712.00
2019-05-23T11:41:17.227Z,65344.00
2019-05-23T11:42:17.206Z,65536.00
2019-05-23T11:43:17.344Z,64544.00
2019-05-23T11:44:17.725Z,64064.00
2019-05-23T11:45:17.202Z,65344.00
2019-05-23T11:46:17.188Z,65280.00
2019-05-23T11:47:18.130Z,66528.00
2019-05-23T11:48:17.716Z,69312.00
2019-05-23T11:49:17.196Z,71360.00
2019-05-23T11:50:17.141Z,70176.00
2019-05-23T11:51:17.126Z,69024.00
2019-05-23T11:52:17.135Z,69472.00
2019-05-23T11:53:17.146Z,67424.00
2019-05-23T11:54:17.079Z,66080.00
2019-05-23T11:55:17.152Z,65280.00
2019-05-23T11:56:17.082Z,66112.00
2019-05-23T11:57:17.060Z,66560.00
2019-05-23T11:58:17.115Z,66016.00
2019-05-23T11:59:17.661Z,67200.00
2019-05-23T12:00:17.667Z,68032.00
2019-05-23T12:01:20.841Z,71168.00
2019-05-23T12:02:17.070Z,72640.00
2019-05-23T12:03:17.942Z,70976.00
2019-05-23T12:04:17.731Z,69536.00
2019-05-23T12:05:17.383Z,70048.00
2019-05-23T12:06:19.580Z,70208.00
2019-05-23T12:07:17.666Z,70016.00
2019-05-23T12:08:16.972Z,65440.00
2019-05-23T12:09:17.161Z,64640.00
2019-05-23T12:10:16.953Z,65888.00
2019-05-23T12:11:17.032Z,68128.00
2019-05-23T12:12:18.235Z,70592.00
2019-05-23T12:13:16.959Z,68640.00